Time,TemperatureF,DewpointF,PressureIn,WindDirection,WindDirectionDegrees,WindSpeedMPH,WindSpeedGustMPH,Humidity,HourlyPrecipIn,Conditions,Clouds,dailyrainin,SoftwareType,DateUTC
2013-10-12 00:13:00,77.0,70.0,29.53,SE,130,4.0,10.0,79,0.00,,,0.00,,2013-10-12 05:13:00,
2013-10-12 00:23:00,77.0,70.0,29.53,South,182,4.0,12.0,80,0.00,,,0.00,,2013-10-12 05:23:00,
2013-10-12 00:43:00,77.0,71.0,29.53,SSE,150,6.0,14.0,81,0.00,,,0.00,,2013-10-12 05:43:00,
2013-10-12 00:52:00,77.0,71.0,29.53,South,173,3.0,10.0,82,0.00,,,0.00,,2013-10-12 05:52:00,
2013-10-12 01:12:00,76.0,70.0,29.53,South,190,5.0,12.0,83,0.00,,,0.00,,2013-10-12 06:12:00,
2013-10-12 01:22:00,76.0,71.0,29.53,SSE,150,3.0,11.0,84,0.00,,,0.00,,2013-10-12 06:22:00,
2013-10-12 01:42:00,76.0,71.0,29.53,SE,126,3.0,9.0,85,0.00,,,0.00,,2013-10-12 06:42:00,
2013-10-12 01:52:00,76.0,71.0,29.53,SSE,149,5.0,11.0,85,0.00,,,0.00,,2013-10-12 06:52:00,
2013-10-12 02:12:00,76.0,72.0,29.53,SSE,150,4.0,10.0,86,0.00,,,0.00,,2013-10-12 07:12:00,
2013-10-12 02:22:00,76.0,72.0,29.54,SSE,165,5.0,14.0,86,0.00,,,0.00,,2013-10-12 07:22:00,
2013-10-12 02:42:00,76.0,72.0,29.54,SE,136,4.0,10.0,87,0.00,,,0.00,,2013-10-12 07:42:00,
2013-10-12 02:52:00,75.0,71.0,29.54,ESE,107,4.0,12.0,87,0.00,,,0.00,,2013-10-12 07:52:00,
2013-10-12 03:12:00,75.0,71.0,29.54,SSE,165,4.0,12.0,88,0.00,,,0.00,,2013-10-12 08:12:00,
2013-10-12 03:22:00,75.0,71.0,29.54,SE,144,4.0,11.0,88,0.00,,,0.00,,2013-10-12 08:22:00,
2013-10-12 03:42:00,75.0,71.0,29.54,SSE,165,3.0,12.0,88,0.00,,,0.00,,2013-10-12 08:42:00,
2013-10-12 03:52:00,76.0,72.0,29.54,South,177,2.0,14.0,88,0.00,,,0.00,,2013-10-12 08:52:00,
2013-10-12 04:11:00,76.0,72.0,29.54,ESE,120,3.0,11.0,87,0.00,,,0.00,,2013-10-12 09:11:00,
2013-10-12 04:21:00,76.0,72.0,29.54,South,187,4.0,10.0,87,0.00,,,0.00,,2013-10-12 09:21:00,
2013-10-12 04:43:00,76.0,72.0,29.54,South,181,1.0,8.0,87,0.00,,,0.00,,2013-10-12 09:43:00,
2013-10-12 04:53:00,76.0,72.0,29.54,South,171,4.0,10.0,87,0.00,,,0.00,,2013-10-12 09:53:00,
2013-10-12 05:12:00,76.0,72.0,29.55,South,190,2.0,7.0,87,0.00,,,0.00,,2013-10-12 10:12:00,
2013-10-12 05:23:00,76.0,72.0,29.55,SSE,149,2.0,7.0,87,0.00,,,0.00,,2013-10-12 10:23:00,
2013-10-12 05:42:00,76.0,72.0,29.55,ESE,107,1.0,7.0,87,0.00,,,0.00,,2013-10-12 10:42:00,
2013-10-12 05:52:00,75.0,71.0,29.56,SSE,167,2.0,11.0,88,0.00,,,0.00,,2013-10-12 10:52:00,
2013-10-12 06:12:00,75.0,72.0,29.56,SSE,167,3.0,7.0,89,0.00,,,0.00,,2013-10-12 11:12:00,
2013-10-12 06:22:00,75.0,72.0,29.57,SSE,148,2.0,6.0,89,0.00,,,0.00,,2013-10-12 11:22:00,
2013-10-12 06:42:00,75.0,72.0,29.57,South,175,1.0,7.0,89,0.00,,,0.00,,2013-10-12 11:42:00,
2013-10-12 06:52:00,75.0,72.0,29.58,SE,144,1.0,5.0,89,0.00,,,0.00,,2013-10-12 11:52:00,
2013-10-12 07:11:00,75.0,72.0,29.58,SSE,167,0.0,5.0,90,0.00,,,0.00,,2013-10-12 12:11:00,
2013-10-12 07:22:00,75.0,72.0,29.59,SSE,152,0.0,5.0,90,0.00,,,0.00,,2013-10-12 12:22:00,
2013-10-12 07:42:00,75.0,72.0,29.59,SSE,161,0.0,6.0,90,0.00,,,0.00,,2013-10-12 12:42:00,
2013-10-12 07:52:00,74.0,71.0,29.59,South,172,0.0,8.0,91,0.00,,,0.00,,2013-10-12 12:52:00,
2013-10-12 08:11:00,74.0,71.0,29.59,SSE,159,1.0,7.0,91,0.00,,,0.00,,2013-10-12 13:11:00,
2013-10-12 08:21:00,74.0,71.0,29.60,ESE,119,1.0,4.0,91,0.00,,,0.00,,2013-10-12 13:21:00,
2013-10-12 08:42:00,74.0,72.0,29.61,SE,143,0.0,3.0,92,0.00,,,0.00,,2013-10-12 13:42:00,
2013-10-12 08:52:00,74.0,72.0,29.62,SSE,159,1.0,4.0,92,0.00,,,0.00,,2013-10-12 13:52:00,
2013-10-12 09:12:00,74.0,72.0,29.62,South,178,3.0,6.0,92,0.00,,,0.00,,2013-10-12 14:12:00,
2013-10-12 09:21:00,74.0,72.0,29.63,South,179,1.0,7.0,92,0.00,,,0.00,,2013-10-12 14:21:00,
2013-10-12 09:42:00,75.0,73.0,29.64,SSW,196,1.0,6.0,92,0.00,,,0.00,,2013-10-12 14:42:00,
2013-10-12 09:52:00,77.0,73.0,29.64,SSE,160,1.0,7.0,88,0.00,,,0.00,,2013-10-12 14:52:00,
2013-10-12 10:11:00,77.0,73.0,29.64,South,182,3.0,8.0,87,0.00,,,0.00,,2013-10-12 15:11:00,
2013-10-12 10:22:00,78.0,73.0,29.64,SE,141,2.0,8.0,85,0.00,,,0.00,,2013-10-12 15:22:00,
2013-10-12 10:43:00,79.0,74.0,29.65,SSE,152,3.0,8.0,84,0.00,,,0.00,,2013-10-12 15:43:00,
2013-10-12 10:53:00,80.0,74.0,29.65,SW,225,3.0,7.0,83,0.00,,,0.00,,2013-10-12 15:53:00,
2013-10-12 11:13:00,80.0,74.0,29.65,SSE,154,2.0,7.0,82,0.00,,,0.00,,2013-10-12 16:13:00,
2013-10-12 11:23:00,81.0,75.0,29.65,SSE,166,2.0,9.0,81,0.00,,,0.00,,2013-10-12 16:23:00,
2013-10-12 11:43:00,82.0,74.0,29.65,SW,236,6.0,11.0,78,0.00,,,0.00,,2013-10-12 16:43:00,
2013-10-12 11:53:00,82.0,74.0,29.65,SSW,210,5.0,9.0,78,0.00,,,0.00,,2013-10-12 16:53:00,
2013-10-12 12:13:00,82.0,74.0,29.65,SW,217,1.0,7.0,78,0.00,,,0.00,,2013-10-12 17:13:00,
2013-10-12 12:23:00,82.0,74.0,29.65,SW,221,1.0,8.0,78,0.00,,,0.00,,2013-10-12 17:23:00,
2013-10-12 12:42:00,84.0,76.0,29.64,SW,232,4.0,10.0,76,0.00,,,0.00,,2013-10-12 17:42:00,
2013-10-12 12:53:00,85.0,75.0,29.63,West,267,3.0,12.0,72,0.00,,,0.00,,2013-10-12 17:53:00,
2013-10-12 13:12:00,86.0,75.0,29.63,SW,231,3.0,8.0,70,0.00,,,0.00,,2013-10-12 18:12:00,
2013-10-12 13:22:00,86.0,75.0,29.62,SSE,163,2.0,10.0,69,0.00,,,0.00,,2013-10-12 18:22:00,
2013-10-12 13:42:00,86.0,74.0,29.62,SW,225,3.0,9.0,68,0.00,,,0.00,,2013-10-12 18:42:00,
2013-10-12 13:52:00,88.0,74.0,29.60,WSW,242,0.0,7.0,64,0.00,,,0.00,,2013-10-12 18:52:00,
2013-10-12 14:11:00,89.0,75.0,29.59,SW,216,0.0,7.0,64,0.00,,,0.00,,2013-10-12 19:11:00,
2013-10-12 14:22:00,89.0,74.0,29.59,WSW,246,0.0,7.0,61,0.00,,,0.00,,2013-10-12 19:22:00,
2013-10-12 14:42:00,89.0,73.0,29.58,WSW,257,0.0,5.0,60,0.00,,,0.00,,2013-10-12 19:42:00,
2013-10-12 14:52:00,89.0,72.0,29.57,West,280,0.0,4.0,58,0.00,,,0.00,,2013-10-12 19:52:00,
2013-10-12 15:12:00,88.0,71.0,29.57,WSW,252,0.0,3.0,58,0.00,,,0.00,,2013-10-12 20:12:00,
2013-10-12 15:22:00,87.0,71.0,29.57,West,277,0.0,3.0,60,0.00,,,0.00,,2013-10-12 20:22:00,
2013-10-12 15:42:00,89.0,72.0,29.56,WSW,250,0.0,3.0,57,0.00,,,0.00,,2013-10-12 20:42:00,
2013-10-12 15:52:00,89.0,71.0,29.56,SSW,196,0.0,3.0,55,0.00,,,0.00,,2013-10-12 20:52:00,
2013-10-12 16:11:00,89.0,73.0,29.56,East,86,2.0,6.0,59,0.00,,,0.00,,2013-10-12 21:11:00,
2013-10-12 16:22:00,90.0,73.0,29.57,ENE,73,1.0,6.0,57,0.00,,,0.00,,2013-10-12 21:22:00,
2013-10-12 16:43:00,84.0,70.0,29.57,SE,138,8.0,22.0,62,0.00,,,0.00,,2013-10-12 21:43:00,
2013-10-12 16:54:00,83.0,69.0,29.57,SE,126,8.0,15.0,63,0.00,,,0.00,,2013-10-12 21:54:00,
2013-10-12 17:13:00,82.0,69.0,29.57,East,91,5.0,12.0,65,0.00,,,0.00,,2013-10-12 22:13:00,
2013-10-12 17:24:00,81.0,68.0,29.58,ESE,109,7.0,15.0,65,0.00,,,0.00,,2013-10-12 22:24:00,
2013-10-12 17:54:00,81.0,69.0,29.59,ESE,113,3.0,12.0,68,0.00,,,0.00,,2013-10-12 22:54:00,
2013-10-12 18:12:00,80.0,69.0,29.59,SSE,160,2.0,8.0,70,0.00,,,0.00,,2013-10-12 23:12:00,
2013-10-12 18:22:00,80.0,69.0,29.59,ESE,123,5.0,11.0,70,0.00,,,0.00,,2013-10-12 23:22:00,
2013-10-12 18:42:00,80.0,70.0,29.59,NE,48,1.0,7.0,71,0.00,,,0.00,,2013-10-12 23:42:00,
2013-10-12 18:52:00,79.0,70.0,29.60,East,80,0.0,2.0,74,0.00,,,0.00,,2013-10-12 23:52:00,
2013-10-12 19:12:00,78.0,69.0,29.61,NNW,347,0.0,3.0,74,0.00,,,0.00,,2013-10-13 00:12:00,
2013-10-12 19:22:00,78.0,70.0,29.62,NNW,340,0.0,4.0,77,0.00,,,0.00,,2013-10-13 00:22:00,
2013-10-12 19:42:00,77.0,69.0,29.63,NNE,19,0.0,2.0,77,0.00,,,0.00,,2013-10-13 00:42:00,
2013-10-12 19:52:00,77.0,70.0,29.63,ENE,76,0.0,2.0,79,0.00,,,0.00,,2013-10-13 00:52:00,
2013-10-12 20:12:00,76.0,69.0,29.63,ENE,77,0.0,1.0,80,0.00,,,0.00,,2013-10-13 01:12:00,
2013-10-12 20:22:00,76.0,70.0,29.64,ENE,77,0.0,1.0,82,0.00,,,0.00,,2013-10-13 01:22:00,
2013-10-12 20:42:00,76.0,70.0,29.65,ESE,116,0.0,3.0,82,0.00,,,0.00,,2013-10-13 01:42:00,
2013-10-12 20:52:00,76.0,70.0,29.65,SSE,157,1.0,6.0,81,0.00,,,0.00,,2013-10-13 01:52:00,
2013-10-12 21:12:00,76.0,69.0,29.65,SE,132,1.0,6.0,80,0.00,,,0.00,,2013-10-13 02:12:00,
2013-10-12 21:22:00,75.0,69.0,29.68,ENE,74,2.0,9.0,82,0.00,,,0.00,,2013-10-13 02:22:00,
2013-10-12 21:42:00,75.0,69.0,29.69,East,96,3.0,9.0,82,0.00,,,0.00,,2013-10-13 02:42:00,
2013-10-12 21:52:00,74.0,69.0,29.70,ESE,115,3.0,9.0,84,0.00,,,0.00,,2013-10-13 02:52:00,
2013-10-12 22:12:00,74.0,68.0,29.71,East,96,6.0,12.0,83,0.00,,,0.00,,2013-10-13 03:12:00,
2013-10-12 22:22:00,74.0,68.0,29.71,East,90,6.0,11.0,83,0.00,,,0.00,,2013-10-13 03:22:00,
2013-10-12 22:45:00,73.0,68.0,29.71,East,88,5.0,13.0,83,0.00,,,0.00,,2013-10-13 03:45:00,
2013-10-12 22:54:00,73.0,68.0,29.72,ESE,107,6.0,12.0,83,0.00,,,0.00,,2013-10-13 03:54:00,
2013-10-12 23:02:00,-999.0,-99.9,29.72,ESE,121,3.0,10.0,-999,-99.99,,,-99.99,,2013-10-13 04:02:00,
2013-10-12 23:14:00,72.0,67.0,29.72,ESE,121,3.0,10.0,84,0.00,,,0.00,,2013-10-13 04:14:00,
2013-10-12 23:23:00,72.0,67.0,29.72,East,89,2.0,7.0,84,0.00,,,0.00,,2013-10-13 04:23:00,
2013-10-12 23:43:00,71.0,66.0,29.71,ESE,119,2.0,8.0,85,0.00,,,0.00,,2013-10-13 04:43:00,
2013-10-12 23:54:00,71.0,66.0,29.71,East,97,1.0,5.0,85,0.00,,,0.00,,2013-10-13 04:54:00,